Accueil
METAR-TAF:

METAR-TAF

Aéroports :

Lydd, Angleterre

Aéroport de Lydd

latitude: 50-57N, longitude: 000-56E, altitude: 3 m

Observation

Le bulletin a été fait il y a 10 minutes, à 03:20 UTC
Vent calme
Température 14°C
Humidité 94%
Pression 1008 hPa
Visibilité: 0350 m
brouillard

METAR: EGMD 190320Z AUTO 00000KT 090V190 0350 FG FEW003/// 14/13 Q1008

Heure: 04:30 (03:30 UTC)

Prévision

Le bulletin a été fait il y a 1 heure et 24 minutes, à 02:06 UTC
Prévision valable du 19 à 03 UTC au 19 à 12 UTC
Vent 5 kt de est/sud-est
Visibilité 10 km ou plus
Nuages épars à une hauteur de 2500 ft
Temporairement
du 19 à 03 UTC au 19 à 09 UTC
Visibilité: 6000 m
Probabilité 30% :
Temporairement
du 19 à 03 UTC au 19 à 08 UTC
Visibilité: 3000 m
Nuages fragmentés à une hauteur de 200 ft
brume

TAF: EGMD 190206Z 1903/1912 12005KT 9999 SCT025 TEMPO 1903/1909 6000 PROB30 TEMPO 1903/1908 3000 BR BKN002

Observations et prévisions météorologiques de plus de 4000 aéroports (messages METAR et TAF).

Les stations disponibles sont représentées par des disques jaunes et rouges sur la carte.

Passer la souris dessus pour voir le nom de la station.

Cliquer dessus pour voir les observations et prévisions météorologiques.

Pour changer de carte: cliquez sur les boutons verts avec une croix noire pour zoomer, sur le bouton vert avec un tiret pour effectuer un zoom arrière, ou sur les flèches vertes pour les cartes adjacentes.


METAR-TAF: